createdAt,value
2019-03-28T00:02:00.170Z,32.81
2019-03-28T00:04:33.947Z,31.89
2019-03-28T00:07:08.853Z,32.23
2019-03-28T00:09:42.840Z,32.25
2019-03-28T00:12:16.871Z,32.18
2019-03-28T00:14:50.441Z,32.38
2019-03-28T00:17:23.931Z,32.33
2019-03-28T00:19:57.497Z,32.29
2019-03-28T00:22:31.013Z,31.50
2019-03-28T00:25:04.476Z,30.80
2019-03-28T00:27:38.266Z,30.25
2019-03-28T00:30:12.568Z,28.77
2019-03-28T00:32:46.283Z,28.23
2019-03-28T00:35:25.717Z,28.46
2019-03-28T00:38:01.450Z,27.99
2019-03-28T00:40:34.944Z,28.21
2019-03-28T00:43:08.703Z,27.13
2019-03-28T00:45:44.470Z,28.24
2019-03-28T00:48:16.931Z,28.20
2019-03-28T00:50:50.529Z,26.97
2019-03-28T00:53:24.247Z,27.11
2019-03-28T00:55:58.116Z,27.01
2019-03-28T00:58:31.708Z,27.80
2019-03-28T01:01:05.506Z,27.69
2019-03-28T01:03:39.356Z,27.16
2019-03-28T01:06:13.009Z,26.39
2019-03-28T01:08:46.690Z,26.98
2019-03-28T01:11:22.552Z,26.10
2019-03-28T01:13:57.649Z,25.35
2019-03-28T01:16:31.199Z,25.06
2019-03-28T01:19:04.514Z,24.71
2019-03-28T01:21:40.086Z,24.09
2019-03-28T01:24:15.708Z,23.78
2019-03-28T01:27:08.999Z,23.62
2019-03-28T01:29:43.092Z,22.32
2019-03-28T01:32:17.215Z,22.64
2019-03-28T01:34:51.166Z,21.43
2019-03-28T01:37:25.081Z,22.62
2019-03-28T01:40:00.853Z,21.58
2019-03-28T01:42:34.840Z,20.56
2019-03-28T01:45:11.058Z,20.31
2019-03-28T01:47:45.333Z,20.91
2019-03-28T01:50:19.546Z,20.48
2019-03-28T01:52:53.283Z,19.91
2019-03-28T01:55:27.363Z,19.09
2019-03-28T01:58:03.060Z,18.89
2019-03-28T02:00:38.608Z,18.73
2019-03-28T02:03:16.475Z,18.23
2019-03-28T02:05:50.478Z,18.26
2019-03-28T02:08:25.109Z,18.08
2019-03-28T02:10:58.966Z,17.49
2019-03-28T02:13:32.722Z,17.34
2019-03-28T02:16:06.935Z,16.57
2019-03-28T02:18:41.082Z,16.57
2019-03-28T02:21:17.111Z,17.69
2019-03-28T02:23:50.820Z,17.90
2019-03-28T02:26:24.538Z,17.64
2019-03-28T02:28:59.569Z,17.79
2019-03-28T02:31:33.263Z,17.50
2019-03-28T02:34:08.397Z,17.34
2019-03-28T02:36:42.333Z,17.29
2019-03-28T02:39:16.879Z,17.56
2019-03-28T02:41:50.714Z,17.50
2019-03-28T02:44:24.356Z,17.32
2019-03-28T02:46:58.138Z,16.56
2019-03-28T02:49:31.859Z,16.47
2019-03-28T02:52:05.596Z,16.50
2019-03-28T02:54:40.972Z,16.10
2019-03-28T02:57:15.090Z,17.10
2019-03-28T02:59:48.746Z,16.56
2019-03-28T03:02:22.613Z,17.10
2019-03-28T03:04:56.943Z,15.95
2019-03-28T03:07:32.307Z,15.85
2019-03-28T03:10:09.572Z,15.19
2019-03-28T03:12:43.357Z,15.19
2019-03-28T03:15:17.145Z,15.80
2019-03-28T03:17:52.132Z,15.94
2019-03-28T03:20:27.766Z,16.44
2019-03-28T03:23:01.504Z,15.46
2019-03-28T03:25:35.797Z,15.99
2019-03-28T03:28:09.899Z,16.25
2019-03-28T03:30:43.949Z,15.73
2019-03-28T03:33:17.737Z,16.55
2019-03-28T03:35:53.502Z,15.78
2019-03-28T03:38:27.499Z,16.14
2019-03-28T03:41:01.704Z,17.24
2019-03-28T03:43:35.628Z,17.00
2019-03-28T03:46:09.687Z,16.71
2019-03-28T03:48:43.852Z,16.85
2019-03-28T03:51:17.368Z,17.09
2019-03-28T03:53:52.759Z,16.47
2019-03-28T03:56:26.604Z,16.20
2019-03-28T03:59:00.665Z,16.30
2019-03-28T04:01:36.683Z,16.48
2019-03-28T04:04:11.635Z,16.62
2019-03-28T04:06:51.799Z,16.99
2019-03-28T04:09:26.054Z,16.82
2019-03-28T04:12:03.245Z,16.42
2019-03-28T04:14:36.979Z,16.68
2019-03-28T04:17:12.345Z,16.44
2019-03-28T04:19:46.268Z,16.21
2019-03-28T04:22:20.646Z,16.07
2019-03-28T04:24:54.668Z,16.46
2019-03-28T04:27:28.745Z,17.04
2019-03-28T04:30:02.644Z,16.49
2019-03-28T04:32:36.485Z,16.64
2019-03-28T04:35:10.443Z,15.90
2019-03-28T04:37:44.312Z,18.36
2019-03-28T04:40:18.015Z,16.38
2019-03-28T04:42:52.591Z,16.13
2019-03-28T04:45:27.426Z,14.93
2019-03-28T04:48:01.784Z,15.25
2019-03-28T04:50:35.701Z,15.24
2019-03-28T04:53:10.047Z,15.98
2019-03-28T04:55:44.000Z,15.25
2019-03-28T04:58:21.335Z,14.74
2019-03-28T05:00:53.223Z,14.70
2019-03-28T05:03:26.902Z,15.25
2019-03-28T05:06:02.205Z,14.59
2019-03-28T05:08:35.790Z,14.76
2019-03-28T05:11:09.465Z,14.72
2019-03-28T05:13:46.619Z,14.84
2019-03-28T05:16:20.431Z,14.94
2019-03-28T05:18:54.158Z,14.76
2019-03-28T05:21:28.325Z,14.17
2019-03-28T05:24:02.177Z,14.28
2019-03-28T05:26:36.467Z,14.35
2019-03-28T05:29:10.946Z,14.21
2019-03-28T05:31:46.410Z,14.42
2019-03-28T05:34:20.233Z,14.81
2019-03-28T05:36:53.922Z,14.85
2019-03-28T05:39:27.675Z,14.72
2019-03-28T05:42:01.698Z,13.92
2019-03-28T05:44:37.537Z,14.50
2019-03-28T05:47:11.502Z,15.45
2019-03-28T05:49:47.188Z,14.69
2019-03-28T05:52:21.022Z,14.59
2019-03-28T05:54:57.572Z,14.61
2019-03-28T05:57:31.239Z,14.74
2019-03-28T06:00:06.038Z,14.78
2019-03-28T06:02:39.786Z,14.93
2019-03-28T06:05:14.301Z,14.61
2019-03-28T06:07:48.254Z,15.71
2019-03-28T06:10:22.567Z,16.06
2019-03-28T06:12:56.859Z,15.14
2019-03-28T06:15:31.823Z,14.99
2019-03-28T06:18:05.833Z,15.51
2019-03-28T06:20:39.655Z,15.05
2019-03-28T06:23:13.548Z,14.94
2019-03-28T06:25:47.324Z,14.62
2019-03-28T06:28:20.888Z,14.28
2019-03-28T06:30:55.944Z,14.65
2019-03-28T06:33:30.352Z,15.26
2019-03-28T06:36:04.132Z,14.72
2019-03-28T06:38:38.510Z,14.63
2019-03-28T06:41:12.343Z,14.89
2019-03-28T06:43:46.212Z,14.54
2019-03-28T06:46:19.971Z,28.03
2019-03-28T06:48:55.372Z,29.23
2019-03-28T06:51:31.334Z,12.95
2019-03-28T06:54:15.007Z,12.81
2019-03-28T06:56:48.825Z,14.29
2019-03-28T06:59:22.518Z,14.43
2019-03-28T07:01:56.580Z,14.06
2019-03-28T07:04:30.912Z,14.42
2019-03-28T07:07:05.057Z,14.77
2019-03-28T07:09:39.961Z,15.09
2019-03-28T07:12:13.522Z,16.37
2019-03-28T07:14:47.289Z,15.28
2019-03-28T07:17:22.826Z,15.47
2019-03-28T07:19:56.917Z,14.98
2019-03-28T07:22:31.070Z,15.10
2019-03-28T07:25:04.750Z,15.94
2019-03-28T07:27:38.475Z,15.34
2019-03-28T07:33:06.705Z,15.53
2019-03-28T07:35:42.123Z,16.06
2019-03-28T07:38:16.773Z,15.09
2019-03-28T07:40:51.017Z,15.45
2019-03-28T07:43:25.281Z,15.39
2019-03-28T07:45:59.429Z,15.46
2019-03-28T07:48:33.277Z,15.01
2019-03-28T07:51:06.618Z,15.70
2019-03-28T07:53:40.574Z,15.29
2019-03-28T07:56:14.818Z,14.74
2019-03-28T07:58:49.013Z,15.66
2019-03-28T08:01:23.360Z,15.68
2019-03-28T08:03:57.802Z,15.35
2019-03-28T08:06:32.027Z,15.22
2019-03-28T08:09:09.891Z,14.66
2019-03-28T08:11:44.244Z,14.86
2019-03-28T08:14:20.941Z,15.24
2019-03-28T08:16:56.490Z,14.91
2019-03-28T08:19:32.771Z,15.23
2019-03-28T08:22:08.758Z,15.22
2019-03-28T08:24:44.153Z,15.62
2019-03-28T08:27:19.645Z,14.95
2019-03-28T08:29:57.688Z,14.88
2019-03-28T08:32:30.311Z,15.19
2019-03-28T08:35:04.101Z,14.65
2019-03-28T08:37:39.256Z,15.21
2019-03-28T08:40:15.494Z,15.53
2019-03-28T08:42:50.863Z,15.07
2019-03-28T08:45:25.064Z,15.53
2019-03-28T08:48:01.067Z,15.21
2019-03-28T08:50:34.854Z,15.43
2019-03-28T08:53:08.781Z,15.88
2019-03-28T08:55:43.486Z,16.01
2019-03-28T08:58:18.820Z,15.84
2019-03-28T09:00:54.060Z,16.07
2019-03-28T09:03:29.873Z,16.52
2019-03-28T09:06:05.574Z,16.90
2019-03-28T09:08:39.629Z,16.30
2019-03-28T09:11:14.313Z,17.06
2019-03-28T09:13:49.092Z,16.05
2019-03-28T09:16:24.434Z,16.46
2019-03-28T09:19:00.160Z,16.51
2019-03-28T09:21:35.655Z,17.23
2019-03-28T09:24:09.550Z,16.11
2019-03-28T09:26:44.156Z,15.95
2019-03-28T09:29:18.962Z,16.06
2019-03-28T09:31:53.044Z,16.04
2019-03-28T09:34:28.463Z,16.22
2019-03-28T09:37:03.367Z,16.18
2019-03-28T09:39:38.706Z,16.50
2019-03-28T09:42:12.399Z,16.52
2019-03-28T09:44:46.971Z,17.60
2019-03-28T09:47:21.410Z,18.02
2019-03-28T09:50:03.066Z,17.89
2019-03-28T09:52:37.473Z,17.07
2019-03-28T09:55:11.813Z,17.28
2019-03-28T09:57:46.551Z,17.17
2019-03-28T10:00:21.580Z,17.79
2019-03-28T10:02:56.503Z,17.76
2019-03-28T10:05:32.109Z,18.78
2019-03-28T10:08:07.294Z,18.35
2019-03-28T10:10:42.182Z,18.41
2019-03-28T10:13:17.260Z,17.16
2019-03-28T10:18:46.824Z,18.46
2019-03-28T10:21:25.442Z,17.40
2019-03-28T10:24:00.544Z,18.49
2019-03-28T10:26:35.682Z,18.73
2019-03-28T10:29:10.494Z,18.29
2019-03-28T10:31:47.052Z,18.36
2019-03-28T10:34:25.548Z,18.12
2019-03-28T10:37:01.433Z,18.53
2019-03-28T10:39:36.140Z,19.37
2019-03-28T10:42:17.700Z,18.64
2019-03-28T10:44:53.652Z,19.28
2019-03-28T10:47:30.345Z,19.40
2019-03-28T10:50:07.280Z,19.82
2019-03-28T10:52:43.439Z,19.46
2019-03-28T10:55:21.711Z,20.06
2019-03-28T10:57:59.217Z,19.86
2019-03-28T11:00:36.958Z,19.22
2019-03-28T11:03:12.568Z,19.91
2019-03-28T11:05:50.494Z,20.13
2019-03-28T11:08:28.707Z,19.84
2019-03-28T11:11:02.357Z,20.07
2019-03-28T11:13:37.649Z,21.25
2019-03-28T11:16:15.230Z,21.15
2019-03-28T11:18:52.612Z,20.69
2019-03-28T11:21:28.096Z,21.40
2019-03-28T11:24:05.251Z,21.14
2019-03-28T11:26:42.769Z,21.17
2019-03-28T11:29:18.737Z,20.48
2019-03-28T11:31:55.094Z,20.96
2019-03-28T11:34:30.506Z,20.49
2019-03-28T11:37:11.347Z,21.17
2019-03-28T11:39:44.594Z,20.72
2019-03-28T11:42:23.661Z,21.07
2019-03-28T11:44:59.553Z,21.12
2019-03-28T11:47:41.140Z,21.10
2019-03-28T11:50:18.553Z,20.84
2019-03-28T11:53:04.515Z,21.11
2019-03-28T11:55:48.528Z,21.98
2019-03-28T11:58:22.003Z,21.24
2019-03-28T12:00:57.503Z,21.16
2019-03-28T12:03:39.611Z,21.05
2019-03-28T12:06:15.121Z,21.82
2019-03-28T12:08:55.769Z,21.84
2019-03-28T12:11:29.241Z,21.26
2019-03-28T12:14:06.205Z,21.57
2019-03-28T12:16:48.310Z,21.11
2019-03-28T12:19:24.981Z,21.26
2019-03-28T12:22:05.278Z,22.26
2019-03-28T12:24:42.485Z,21.26
2019-03-28T12:27:20.225Z,22.20
2019-03-28T12:30:01.109Z,21.56
2019-03-28T12:32:37.239Z,22.15
2019-03-28T12:41:02.964Z,22.33
2019-03-28T12:43:39.529Z,23.03
2019-03-28T12:46:18.095Z,22.60
2019-03-28T12:48:53.616Z,22.45
2019-03-28T12:51:31.167Z,22.47
2019-03-28T12:54:09.190Z,22.69
2019-03-28T12:56:50.107Z,22.52
2019-03-28T12:59:27.727Z,22.80
2019-03-28T13:02:05.805Z,22.57
2019-03-28T13:04:41.484Z,22.25
2019-03-28T13:07:17.034Z,22.44
2019-03-28T13:09:52.621Z,23.24
2019-03-28T13:12:34.343Z,22.81
2019-03-28T13:15:10.898Z,23.19
2019-03-28T13:17:46.552Z,23.19
2019-03-28T13:20:27.312Z,23.75
2019-03-28T13:23:04.632Z,23.41
2019-03-28T13:25:42.569Z,23.79
2019-03-28T13:28:23.292Z,24.40
2019-03-28T13:30:59.686Z,24.69
2019-03-28T13:33:37.441Z,24.55
2019-03-28T13:36:13.021Z,25.57
2019-03-28T13:38:53.191Z,26.06
2019-03-28T13:41:28.541Z,24.91
2019-03-28T13:44:03.824Z,25.52
2019-03-28T13:46:42.075Z,24.88
2019-03-28T13:49:18.366Z,26.80
2019-03-28T13:51:58.808Z,25.59
2019-03-28T13:54:35.088Z,26.13
2019-03-28T13:57:10.792Z,26.72
2019-03-28T13:59:47.377Z,26.11
2019-03-28T14:02:22.419Z,25.45
2019-03-28T14:04:59.018Z,29.78
2019-03-28T14:07:35.819Z,30.59
2019-03-28T14:10:13.455Z,29.60
2019-03-28T14:12:47.884Z,28.57
2019-03-28T14:15:25.336Z,28.27
2019-03-28T14:18:01.545Z,27.90
2019-03-28T14:20:36.835Z,27.65
2019-03-28T14:23:10.920Z,28.00
2019-03-28T14:25:46.667Z,27.94
2019-03-28T14:28:22.687Z,28.36
2019-03-28T14:31:00.678Z,27.74
2019-03-28T14:33:34.436Z,28.53
2019-03-28T14:36:08.949Z,29.55
2019-03-28T14:38:43.611Z,28.11
2019-03-28T14:41:18.094Z,29.99
2019-03-28T14:43:53.389Z,28.97
2019-03-28T14:46:29.604Z,28.23
2019-03-28T14:49:05.572Z,29.87
2019-03-28T14:51:40.010Z,28.37
2019-03-28T14:54:15.675Z,28.63
2019-03-28T14:56:51.482Z,28.98
2019-03-28T14:59:32.381Z,31.50
2019-03-28T15:02:03.905Z,31.82
2019-03-28T15:04:39.459Z,30.32
2019-03-28T15:07:13.784Z,32.07
2019-03-28T15:09:49.954Z,31.14
2019-03-28T15:12:29.120Z,30.73
2019-03-28T15:15:03.619Z,32.40
2019-03-28T15:17:38.172Z,31.97
2019-03-28T15:20:12.634Z,30.52
2019-03-28T15:22:47.092Z,31.77
2019-03-28T15:25:23.064Z,31.65
2019-03-28T15:27:57.166Z,33.11
2019-03-28T15:30:31.483Z,32.24
2019-03-28T15:33:05.968Z,32.15
2019-03-28T15:35:39.567Z,31.96
2019-03-28T15:38:15.443Z,32.81
2019-03-28T15:40:49.780Z,32.04
2019-03-28T15:43:26.422Z,31.26
2019-03-28T15:46:01.006Z,32.14
2019-03-28T15:48:35.666Z,33.56
2019-03-28T15:51:12.188Z,33.10
2019-03-28T15:53:46.975Z,33.84
2019-03-28T15:56:23.314Z,33.39
2019-03-28T15:58:59.093Z,34.49
2019-03-28T16:01:33.612Z,33.39
2019-03-28T16:04:11.772Z,32.92
2019-03-28T16:06:47.724Z,32.81
2019-03-28T16:09:23.725Z,32.66
2019-03-28T16:12:02.831Z,33.31
2019-03-28T16:14:34.380Z,34.11
2019-03-28T16:17:08.780Z,35.46
2019-03-28T16:19:45.163Z,36.39
2019-03-28T16:22:22.369Z,34.87
2019-03-28T16:24:55.094Z,34.07
2019-03-28T16:27:29.591Z,33.96
2019-03-28T16:30:04.045Z,35.11
2019-03-28T16:32:38.064Z,35.68
2019-03-28T16:35:12.080Z,35.83
2019-03-28T16:37:46.199Z,35.68
2019-03-28T16:40:20.475Z,36.61
2019-03-28T16:42:55.676Z,36.17
2019-03-28T16:45:30.084Z,36.17
2019-03-28T16:48:04.709Z,35.62
2019-03-28T16:50:38.832Z,36.42
2019-03-28T16:53:14.914Z,37.47
2019-03-28T16:55:49.321Z,38.72
2019-03-28T16:58:23.176Z,37.17
2019-03-28T17:00:57.006Z,36.60
2019-03-28T17:03:31.105Z,36.55
2019-03-28T17:06:07.688Z,36.14
2019-03-28T17:08:43.945Z,36.30
2019-03-28T17:11:18.570Z,36.29
2019-03-28T17:13:54.746Z,36.79
2019-03-28T17:16:29.682Z,36.17
2019-03-28T17:19:03.547Z,37.25
2019-03-28T17:21:38.024Z,37.83
2019-03-28T17:24:11.836Z,38.79
2019-03-28T17:26:47.393Z,38.78
2019-03-28T17:29:23.469Z,38.65
2019-03-28T17:31:59.632Z,39.41
2019-03-28T17:34:37.135Z,38.80
2019-03-28T17:37:10.977Z,36.81
2019-03-28T17:39:46.140Z,36.66
2019-03-28T17:42:19.738Z,37.94
2019-03-28T17:44:53.467Z,38.47
2019-03-28T17:47:27.112Z,37.52
2019-03-28T17:50:02.307Z,37.46
2019-03-28T17:52:35.837Z,37.46
2019-03-28T17:55:10.439Z,38.71
2019-03-28T17:57:45.816Z,38.54
2019-03-28T18:00:19.993Z,38.38
2019-03-28T18:02:53.986Z,37.93
2019-03-28T18:05:27.736Z,38.59
2019-03-28T18:08:03.610Z,38.70
2019-03-28T18:10:38.483Z,37.73
2019-03-28T18:13:13.573Z,38.22
2019-03-28T18:15:48.740Z,38.26
2019-03-28T18:18:26.267Z,39.73
2019-03-28T18:21:00.582Z,38.06
2019-03-28T18:23:34.798Z,39.95
2019-03-28T18:26:09.554Z,39.37
2019-03-28T18:28:45.731Z,39.36
2019-03-28T18:31:19.563Z,38.95
2019-03-28T18:33:58.329Z,39.57
2019-03-28T18:36:34.224Z,39.91
2019-03-28T18:39:08.872Z,40.09
2019-03-28T18:41:42.580Z,40.81
2019-03-28T18:44:17.461Z,42.28
2019-03-28T18:46:52.771Z,41.59
2019-03-28T18:49:28.705Z,41.34
2019-03-28T18:52:07.218Z,40.92
2019-03-28T18:54:40.320Z,40.44
2019-03-28T18:57:14.845Z,41.05
2019-03-28T18:59:49.807Z,40.94
2019-03-28T19:02:23.614Z,41.05
2019-03-28T19:04:57.473Z,40.58
2019-03-28T19:07:31.135Z,40.66
2019-03-28T19:10:05.713Z,40.69
2019-03-28T19:12:41.089Z,41.41
2019-03-28T19:15:15.810Z,41.25
2019-03-28T19:17:49.953Z,42.00
2019-03-28T19:20:25.469Z,41.69
2019-03-28T19:22:59.113Z,41.66
2019-03-28T19:25:35.340Z,41.82
2019-03-28T19:28:11.435Z,41.38
2019-03-28T19:30:45.451Z,40.87
2019-03-28T19:33:19.279Z,41.86
2019-03-28T19:35:55.857Z,42.69
2019-03-28T19:38:30.464Z,41.75
2019-03-28T19:41:04.470Z,41.75
2019-03-28T19:43:40.133Z,41.77
2019-03-28T19:46:13.901Z,41.25
2019-03-28T19:48:47.649Z,42.98
2019-03-28T19:51:21.215Z,42.53
2019-03-28T19:53:55.316Z,43.11
2019-03-28T19:56:29.127Z,43.15
2019-03-28T19:59:02.740Z,43.29
2019-03-28T20:01:37.563Z,43.29
2019-03-28T20:04:11.487Z,43.87
2019-03-28T20:06:45.029Z,43.23
2019-03-28T20:09:18.540Z,43.03
2019-03-28T20:11:52.123Z,43.10
2019-03-28T20:14:25.980Z,43.82
2019-03-28T20:16:59.873Z,43.26
2019-03-28T20:19:33.558Z,42.78
2019-03-28T20:22:07.078Z,43.45
2019-03-28T20:24:41.756Z,42.89
2019-03-28T20:27:15.549Z,42.85
2019-03-28T20:29:49.309Z,43.52
2019-03-28T20:32:22.941Z,43.51
2019-03-28T20:34:56.554Z,44.33
2019-03-28T20:37:30.194Z,44.89
2019-03-28T20:40:03.807Z,43.61
2019-03-28T20:42:37.402Z,42.67
2019-03-28T20:45:12.681Z,43.80
2019-03-28T20:47:46.423Z,43.91
2019-03-28T20:50:20.425Z,43.46
2019-03-28T20:52:54.310Z,44.23
2019-03-28T20:55:27.986Z,45.04
2019-03-28T20:58:02.816Z,44.26
2019-03-28T21:00:48.056Z,44.70
2019-03-28T21:03:22.961Z,45.37
2019-03-28T21:05:56.450Z,46.30
2019-03-28T21:08:30.338Z,46.10
2019-03-28T21:11:04.124Z,45.13
2019-03-28T21:13:38.114Z,44.80
2019-03-28T21:16:12.135Z,44.72
2019-03-28T21:18:45.463Z,44.93
2019-03-28T21:21:19.010Z,45.72
2019-03-28T21:23:52.726Z,45.26
2019-03-28T21:26:26.352Z,45.90
2019-03-28T21:28:59.884Z,45.85
2019-03-28T21:31:33.627Z,46.61
2019-03-28T21:34:07.745Z,47.18
2019-03-28T21:36:42.763Z,47.77
2019-03-28T21:39:17.107Z,46.98
2019-03-28T21:41:50.594Z,46.99
2019-03-28T21:44:24.197Z,46.45
2019-03-28T21:46:58.767Z,46.49
2019-03-28T21:49:32.686Z,46.23
2019-03-28T21:52:07.477Z,46.96
2019-03-28T21:54:41.802Z,47.16
2019-03-28T21:57:15.968Z,46.39
2019-03-28T21:59:49.643Z,47.59
2019-03-28T22:02:23.109Z,47.11
2019-03-28T22:04:56.585Z,46.86
2019-03-28T22:07:30.214Z,47.26
2019-03-28T22:10:04.226Z,47.46
2019-03-28T22:12:37.757Z,46.82
2019-03-28T22:15:11.964Z,46.64
2019-03-28T22:17:47.257Z,46.56
2019-03-28T22:20:20.766Z,46.13
2019-03-28T22:22:55.117Z,45.71
2019-03-28T22:25:30.401Z,46.42
2019-03-28T22:28:04.535Z,46.86
2019-03-28T22:30:38.980Z,47.23
2019-03-28T22:33:13.557Z,46.43
2019-03-28T22:35:47.547Z,45.45
2019-03-28T22:38:21.190Z,46.50
2019-03-28T22:40:54.991Z,43.90
2019-03-28T22:43:30.012Z,44.18
2019-03-28T22:46:05.559Z,44.58
2019-03-28T22:48:39.909Z,45.21
2019-03-28T22:51:13.595Z,44.14
2019-03-28T22:53:47.207Z,43.49
2019-03-28T22:56:21.747Z,43.58
2019-03-28T22:58:55.455Z,43.48
2019-03-28T23:01:29.445Z,43.95
2019-03-28T23:04:03.259Z,46.97
2019-03-28T23:06:38.091Z,43.82
2019-03-28T23:09:13.184Z,42.45
2019-03-28T23:11:54.676Z,42.64
2019-03-28T23:14:28.707Z,42.82
2019-03-28T23:17:02.387Z,40.67
2019-03-28T23:19:36.283Z,40.85
2019-03-28T23:22:10.118Z,39.88
2019-03-28T23:24:44.181Z,38.94
2019-03-28T23:27:18.658Z,35.92
2019-03-28T23:29:52.732Z,35.83
2019-03-28T23:32:26.583Z,35.72
2019-03-28T23:35:00.924Z,35.60
2019-03-28T23:37:35.072Z,35.69
2019-03-28T23:40:10.209Z,36.66
2019-03-28T23:42:44.556Z,36.93
2019-03-28T23:45:19.159Z,36.68
2019-03-28T23:47:55.176Z,36.63
2019-03-28T23:50:29.541Z,37.03
2019-03-28T23:53:05.536Z,36.23
2019-03-28T23:55:39.474Z,36.00
2019-03-28T23:58:13.311Z,35.76
